sensor_id;sensor_type;location;lat;lon;timestamp;pressure;altitude;pressure_sealevel;temperature
80962;BMP280;70424;55.154;14.722;2023-09-19T00:00:33;100211.66;;;21.01
80962;BMP280;70424;55.154;14.722;2023-09-19T00:02:59;100222.78;;;21.01
80962;BMP280;70424;55.154;14.722;2023-09-19T00:05:25;100213.72;;;21.00
80962;BMP280;70424;55.154;14.722;2023-09-19T00:07:53;100208.84;;;20.97
80962;BMP280;70424;55.154;14.722;2023-09-19T00:10:23;100224.09;;;20.94
80962;BMP280;70424;55.154;14.722;2023-09-19T00:12:55;100205.31;;;20.92
80962;BMP280;70424;55.154;14.722;2023-09-19T00:15:21;100208.09;;;20.92
80962;BMP280;70424;55.154;14.722;2023-09-19T00:17:47;100194.81;;;20.86
80962;BMP280;70424;55.154;14.722;2023-09-19T00:20:14;100199.72;;;20.88
80962;BMP280;70424;55.154;14.722;2023-09-19T00:22:43;100205.94;;;20.84
80962;BMP280;70424;55.154;14.722;2023-09-19T00:25:08;100203.13;;;20.82
80962;BMP280;70424;55.154;14.722;2023-09-19T00:27:40;100195.47;;;20.81
80962;BMP280;70424;55.154;14.722;2023-09-19T00:30:10;100198.22;;;20.79
80962;BMP280;70424;55.154;14.722;2023-09-19T00:32:40;100189.84;;;20.75
80962;BMP280;70424;55.154;14.722;2023-09-19T00:35:06;100191.19;;;20.72
80962;BMP280;70424;55.154;14.722;2023-09-19T00:37:33;100203.00;;;20.72
80962;BMP280;70424;55.154;14.722;2023-09-19T00:39:59;100198.84;;;20.71
80962;BMP280;70424;55.154;14.722;2023-09-19T00:42:24;100188.44;;;20.72
80962;BMP280;70424;55.154;14.722;2023-09-19T00:44:51;100188.38;;;20.68
80962;BMP280;70424;55.154;14.722;2023-09-19T00:47:17;100199.47;;;20.68
80962;BMP280;70424;55.154;14.722;2023-09-19T00:49:44;100193.19;;;20.65
80962;BMP280;70424;55.154;14.722;2023-09-19T00:52:14;100188.28;;;20.62
80962;BMP280;70424;55.154;14.722;2023-09-19T00:54:40;100195.97;;;20.65
80962;BMP280;70424;55.154;14.722;2023-09-19T00:57:05;100183.44;;;20.60
80962;BMP280;70424;55.154;14.722;2023-09-19T00:59:33;100179.22;;;20.57
80962;BMP280;70424;55.154;14.722;2023-09-19T01:02:02;100186.81;;;20.54
80962;BMP280;70424;55.154;14.722;2023-09-19T01:04:27;100182.69;;;20.58
80962;BMP280;70424;55.154;14.722;2023-09-19T01:06:53;100177.09;;;20.51
80962;BMP280;70424;55.154;14.722;2023-09-19T01:09:19;100176.38;;;20.53
80962;BMP280;70424;55.154;14.722;2023-09-19T01:11:48;100181.91;;;20.49
80962;BMP280;70424;55.154;14.722;2023-09-19T01:14:37;100176.34;;;20.49
80962;BMP280;70424;55.154;14.722;2023-09-19T01:17:30;100180.47;;;20.46
80962;BMP280;70424;55.154;14.722;2023-09-19T01:20:15;100177.66;;;20.44
80962;BMP280;70424;55.154;14.722;2023-09-19T01:23:07;100167.19;;;20.40
80962;BMP280;70424;55.154;14.722;2023-09-19T01:28:34;100175.56;;;20.42
80962;BMP280;70424;55.154;14.722;2023-09-19T01:31:10;100178.31;;;20.40
80962;BMP280;70424;55.154;14.722;2023-09-19T01:33:56;100174.16;;;20.39
80962;BMP280;70424;55.154;14.722;2023-09-19T01:36:22;100173.41;;;20.37
80962;BMP280;70424;55.154;14.722;2023-09-19T01:38:50;100173.41;;;20.37
80962;BMP280;70424;55.154;14.722;2023-09-19T01:41:21;100171.28;;;20.35
80962;BMP280;70424;55.154;14.722;2023-09-19T01:43:50;100168.50;;;20.35
80962;BMP280;70424;55.154;14.722;2023-09-19T01:46:24;100174.13;;;20.37
80962;BMP280;70424;55.154;14.722;2023-09-19T01:54:02;100165.75;;;20.35
80962;BMP280;70424;55.154;14.722;2023-09-19T01:56:55;100167.84;;;20.35
80962;BMP280;70424;55.154;14.722;2023-09-19T01:59:26;100157.38;;;20.31
80962;BMP280;70424;55.154;14.722;2023-09-19T02:01:54;100156.69;;;20.31
80962;BMP280;70424;55.154;14.722;2023-09-19T02:04:20;100158.00;;;20.28
80962;BMP280;70424;55.154;14.722;2023-09-19T02:06:45;100155.25;;;20.28
80962;BMP280;70424;55.154;14.722;2023-09-19T02:09:13;100157.31;;;20.25
80962;BMP280;70424;55.154;14.722;2023-09-19T02:11:39;100164.25;;;20.26
80962;BMP280;70424;55.154;14.722;2023-09-19T02:14:06;100158.72;;;20.26
80962;BMP280;70424;55.154;14.722;2023-09-19T02:16:34;100167.03;;;20.28
80962;BMP280;70424;55.154;14.722;2023-09-19T02:18:59;100150.38;;;20.28
80962;BMP280;70424;55.154;14.722;2023-09-19T02:21:25;100153.16;;;20.26
80962;BMP280;70424;55.154;14.722;2023-09-19T02:23:51;100161.50;;;20.28
80962;BMP280;70424;55.154;14.722;2023-09-19T02:26:16;100160.09;;;20.25
80962;BMP280;70424;55.154;14.722;2023-09-19T02:28:44;100164.22;;;20.24
80962;BMP280;70424;55.154;14.722;2023-09-19T02:31:11;100161.44;;;20.22
80962;BMP280;70424;55.154;14.722;2023-09-19T02:33:36;100141.97;;;20.18
80962;BMP280;70424;55.154;14.722;2023-09-19T02:36:02;100149.59;;;20.19
80962;BMP280;70424;55.154;14.722;2023-09-19T02:38:29;100144.03;;;20.19
80962;BMP280;70424;55.154;14.722;2023-09-19T02:40:54;100155.16;;;20.19
80962;BMP280;70424;55.154;14.722;2023-09-19T02:43:20;100160.00;;;20.19
80962;BMP280;70424;55.154;14.722;2023-09-19T02:45:46;100148.13;;;20.14
80962;BMP280;70424;55.154;14.722;2023-09-19T02:48:12;100164.16;;;20.18
80962;BMP280;70424;55.154;14.722;2023-09-19T02:50:37;100155.13;;;20.17
80962;BMP280;70424;55.154;14.722;2023-09-19T02:53:05;100157.16;;;20.15
80962;BMP280;70424;55.154;14.722;2023-09-19T02:55:32;100147.41;;;20.12
80962;BMP280;70424;55.154;14.722;2023-09-19T02:57:57;100155.03;;;20.11
80962;BMP280;70424;55.154;14.722;2023-09-19T03:00:23;100145.28;;;20.08
80962;BMP280;70424;55.154;14.722;2023-09-19T03:02:58;100148.72;;;20.05
80962;BMP280;70424;55.154;14.722;2023-09-19T03:05:24;100158.41;;;20.04
80962;BMP280;70424;55.154;14.722;2023-09-19T03:07:51;100152.78;;;20.00
80962;BMP280;70424;55.154;14.722;2023-09-19T03:10:20;100149.31;;;19.99
80962;BMP280;70424;55.154;14.722;2023-09-19T03:12:47;100156.22;;;19.96
80962;BMP280;70424;55.154;14.722;2023-09-19T03:15:13;100147.88;;;19.96
80962;BMP280;70424;55.154;14.722;2023-09-19T03:17:43;100147.84;;;19.94
80962;BMP280;70424;55.154;14.722;2023-09-19T03:20:08;100144.38;;;19.94
80962;BMP280;70424;55.154;14.722;2023-09-19T03:22:36;100152.63;;;19.90
80962;BMP280;70424;55.154;14.722;2023-09-19T03:25:01;100149.84;;;19.90
80962;BMP280;70424;55.154;14.722;2023-09-19T03:27:27;100149.78;;;19.83
80962;BMP280;70424;55.154;14.722;2023-09-19T03:29:52;100149.78;;;19.83
80962;BMP280;70424;55.154;14.722;2023-09-19T03:32:19;100149.81;;;19.86
80962;BMP280;70424;55.154;14.722;2023-09-19T03:34:44;100155.31;;;19.83
80962;BMP280;70424;55.154;14.722;2023-09-19T03:37:09;100153.28;;;19.86
80962;BMP280;70424;55.154;14.722;2023-09-19T03:39:35;100157.47;;;19.87
80962;BMP280;70424;55.154;14.722;2023-09-19T03:42:01;100153.34;;;19.90
80962;BMP280;70424;55.154;14.722;2023-09-19T03:44:28;100163.03;;;19.89
80962;BMP280;70424;55.154;14.722;2023-09-19T03:46:53;100153.28;;;19.88
80962;BMP280;70424;55.154;14.722;2023-09-19T03:49:20;100149.78;;;19.83
80962;BMP280;70424;55.154;14.722;2023-09-19T03:51:46;100150.44;;;19.82
80962;BMP280;70424;55.154;14.722;2023-09-19T03:54:12;100147.63;;;19.78
80962;BMP280;70424;55.154;14.722;2023-09-19T03:56:37;100153.88;;;19.80
80962;BMP280;70424;55.154;14.722;2023-09-19T03:59:03;100156.66;;;19.78
80962;BMP280;70424;55.154;14.722;2023-09-19T04:01:28;100150.41;;;19.78
80962;BMP280;70424;55.154;14.722;2023-09-19T04:03:57;100153.19;;;19.78
80962;BMP280;70424;55.154;14.722;2023-09-19T04:06:22;100154.59;;;19.79
80962;BMP280;70424;55.154;14.722;2023-09-19T04:08:47;100158.00;;;19.77
80962;BMP280;70424;55.154;14.722;2023-09-19T04:11:14;100160.06;;;19.77
80962;BMP280;70424;55.154;14.722;2023-09-19T04:13:39;100155.88;;;19.76
80962;BMP280;70424;55.154;14.722;2023-09-19T04:16:04;100157.91;;;19.71
80962;BMP280;70424;55.154;14.722;2023-09-19T04:18:32;100145.31;;;19.64
80962;BMP280;70424;55.154;14.722;2023-09-19T04:20:58;100159.84;;;19.63
80962;BMP280;70424;55.154;14.722;2023-09-19T04:23:26;100166.69;;;19.58
80962;BMP280;70424;55.154;14.722;2023-09-19T04:25:53;100159.72;;;19.53
80962;BMP280;70424;55.154;14.722;2023-09-19T04:28:18;100162.41;;;19.49
80962;BMP280;70424;55.154;14.722;2023-09-19T04:30:44;100157.47;;;19.45
80962;BMP280;70424;55.154;14.722;2023-09-19T04:33:09;100171.28;;;19.41
80962;BMP280;70424;55.154;14.722;2023-09-19T04:35:34;100170.53;;;19.38
80962;BMP280;70424;55.154;14.722;2023-09-19T04:38:00;100176.63;;;19.31
80962;BMP280;70424;55.154;14.722;2023-09-19T04:40:26;100189.09;;;19.30
80962;BMP280;70424;55.154;14.722;2023-09-19T04:42:55;100181.44;;;19.26
80962;BMP280;70424;55.154;14.722;2023-09-19T04:45:25;100178.59;;;19.24
80962;BMP280;70424;55.154;14.722;2023-09-19T04:47:51;100172.28;;;19.20
80962;BMP280;70424;55.154;14.722;2023-09-19T04:50:17;100180.53;;;19.18
80962;BMP280;70424;55.154;14.722;2023-09-19T04:52:43;100185.47;;;19.21
80962;BMP280;70424;55.154;14.722;2023-09-19T04:55:15;100181.31;;;19.20
80962;BMP280;70424;55.154;14.722;2023-09-19T04:57:48;100171.59;;;19.19
80962;BMP280;70424;55.154;14.722;2023-09-19T05:00:17;100174.31;;;19.17
80962;BMP280;70424;55.154;14.722;2023-09-19T05:02:44;100184.00;;;19.16
80962;BMP280;70424;55.154;14.722;2023-09-19T05:05:10;100181.94;;;19.17
80962;BMP280;70424;55.154;14.722;2023-09-19T05:07:40;100186.06;;;19.16
80962;BMP280;70424;55.154;14.722;2023-09-19T05:10:06;100177.72;;;19.14
80962;BMP280;70424;55.154;14.722;2023-09-19T05:12:35;100170.81;;;19.15
80962;BMP280;70424;55.154;14.722;2023-09-19T05:15:05;100183.94;;;19.14
80962;BMP280;70424;55.154;14.722;2023-09-19T05:17:31;100177.75;;;19.16
80962;BMP280;70424;55.154;14.722;2023-09-19T05:19:57;100191.59;;;19.16
80962;BMP280;70424;55.154;14.722;2023-09-19T05:22:23;100196.44;;;19.15
80962;BMP280;70424;55.154;14.722;2023-09-19T05:24:50;100193.00;;;19.17
80962;BMP280;70424;55.154;14.722;2023-09-19T05:27:16;100187.47;;;19.17
80962;BMP280;70424;55.154;14.722;2023-09-19T05:29:43;100190.94;;;19.17
80962;BMP280;70424;55.154;14.722;2023-09-19T05:32:10;100201.34;;;19.19
80962;BMP280;70424;55.154;14.722;2023-09-19T05:34:35;100194.31;;;19.14
80962;BMP280;70424;55.154;14.722;2023-09-19T05:37:01;100206.00;;;19.08
80962;BMP280;70424;55.154;14.722;2023-09-19T05:39:27;100207.38;;;19.07
80962;BMP280;70424;55.154;14.722;2023-09-19T05:41:52;100209.44;;;19.06
80962;BMP280;70424;55.154;14.722;2023-09-19T05:44:17;100217.09;;;19.08
80962;BMP280;70424;55.154;14.722;2023-09-19T05:46:42;100215.69;;;19.09
80962;BMP280;70424;55.154;14.722;2023-09-19T05:49:08;100219.19;;;19.09
80962;BMP280;70424;55.154;14.722;2023-09-19T05:51:33;100236.38;;;19.04
80962;BMP280;70424;55.154;14.722;2023-09-19T05:53:59;100221.16;;;19.05
80962;BMP280;70424;55.154;14.722;2023-09-19T05:56:24;100226.00;;;19.04
80962;BMP280;70424;55.154;14.722;2023-09-19T05:58:50;100229.47;;;19.05
80962;BMP280;70424;55.154;14.722;2023-09-19T06:01:17;100239.25;;;19.08
80962;BMP280;70424;55.154;14.722;2023-09-19T06:03:43;100233.00;;;19.07
80962;BMP280;70424;55.154;14.722;2023-09-19T06:06:08;100224.22;;;19.19
80962;BMP280;70424;55.154;14.722;2023-09-19T06:08:34;100234.56;;;19.17
80962;BMP280;70424;55.154;14.722;2023-09-19T06:11:00;100232.38;;;19.11
80962;BMP280;70424;55.154;14.722;2023-09-19T06:13:28;100231.00;;;19.12
80962;BMP280;70424;55.154;14.722;2023-09-19T06:15:54;100230.47;;;19.20
80962;BMP280;70424;55.154;14.722;2023-09-19T06:18:21;100217.59;;;19.34
80962;BMP280;70424;55.154;14.722;2023-09-19T06:20:47;100231.59;;;19.44
80962;BMP280;70424;55.154;14.722;2023-09-19T06:23:13;100228.94;;;19.51
80962;BMP280;70424;55.154;14.722;2023-09-19T06:25:39;100238.03;;;19.55
80962;BMP280;70424;55.154;14.722;2023-09-19T06:28:05;100240.16;;;19.57
80962;BMP280;70424;55.154;14.722;2023-09-19T06:30:33;100249.06;;;19.91
80962;BMP280;70424;55.154;14.722;2023-09-19T06:33:00;100264.66;;;20.14
80962;BMP280;70424;55.154;14.722;2023-09-19T06:35:26;100237.78;;;20.25
80962;BMP280;70424;55.154;14.722;2023-09-19T06:37:52;100247.59;;;20.30
80962;BMP280;70424;55.154;14.722;2023-09-19T06:40:18;100244.75;;;20.26
80962;BMP280;70424;55.154;14.722;2023-09-19T06:42:46;100250.91;;;20.23
80962;BMP280;70424;55.154;14.722;2023-09-19T06:45:12;100268.34;;;20.29
80962;BMP280;70424;55.154;14.722;2023-09-19T06:47:42;100246.31;;;20.41
80962;BMP280;70424;55.154;14.722;2023-09-19T06:50:08;100250.47;;;20.40
80962;BMP280;70424;55.154;14.722;2023-09-19T06:52:39;100254.34;;;20.19
80962;BMP280;70424;55.154;14.722;2023-09-19T06:55:05;100272.50;;;20.28
80962;BMP280;70424;55.154;14.722;2023-09-19T06:57:31;100277.34;;;20.28
80962;BMP280;70424;55.154;14.722;2023-09-19T06:59:57;100277.31;;;20.24
80962;BMP280;70424;55.154;14.722;2023-09-19T07:02:22;100286.16;;;20.14
80962;BMP280;70424;55.154;14.722;2023-09-19T07:04:47;100286.94;;;20.18
80962;BMP280;70424;55.154;14.722;2023-09-19T07:07:15;100275.88;;;20.23
80962;BMP280;70424;55.154;14.722;2023-09-19T07:09:40;100297.47;;;20.26
80962;BMP280;70424;55.154;14.722;2023-09-19T07:12:07;100305.03;;;20.22
80962;BMP280;70424;55.154;14.722;2023-09-19T07:14:32;100273.50;;;20.03
80962;BMP280;70424;55.154;14.722;2023-09-19T07:16:58;100295.94;;;20.17
80962;BMP280;70424;55.154;14.722;2023-09-19T07:19:25;100288.50;;;20.30
80962;BMP280;70424;55.154;14.722;2023-09-19T07:21:53;100300.66;;;20.54
80962;BMP280;70424;55.154;14.722;2023-09-19T07:24:18;100295.75;;;20.53
80962;BMP280;70424;55.154;14.722;2023-09-19T07:26:45;100303.59;;;20.65
80962;BMP280;70424;55.154;14.722;2023-09-19T07:29:10;100305.03;;;20.70
80962;BMP280;70424;55.154;14.722;2023-09-19T07:31:36;100300.28;;;20.76
80962;BMP280;70424;55.154;14.722;2023-09-19T07:34:01;100291.94;;;20.78
80962;BMP280;70424;55.154;14.722;2023-09-19T07:36:28;100302.53;;;20.90
80962;BMP280;70424;55.154;14.722;2023-09-19T07:38:54;100311.19;;;21.16
80962;BMP280;70424;55.154;14.722;2023-09-19T07:41:20;100312.88;;;21.42
80962;BMP280;70424;55.154;14.722;2023-09-19T07:43:46;100318.78;;;21.78
80962;BMP280;70424;55.154;14.722;2023-09-19T07:46:11;100330.53;;;21.71
80962;BMP280;70424;55.154;14.722;2023-09-19T07:48:37;100322.59;;;21.45
80962;BMP280;70424;55.154;14.722;2023-09-19T07:51:05;100317.72;;;21.43
80962;BMP280;70424;55.154;14.722;2023-09-19T07:53:31;100324.69;;;21.44
80962;BMP280;70424;55.154;14.722;2023-09-19T07:56:04;100309.47;;;21.49
80962;BMP280;70424;55.154;14.722;2023-09-19T07:58:30;100319.41;;;21.71
80962;BMP280;70424;55.154;14.722;2023-09-19T08:00:56;100318.13;;;21.84
80962;BMP280;70424;55.154;14.722;2023-09-19T08:03:21;100327.34;;;22.02
80962;BMP280;70424;55.154;14.722;2023-09-19T08:05:47;100319.00;;;22.02
80962;BMP280;70424;55.154;14.722;2023-09-19T08:08:14;100332.19;;;22.04
80962;BMP280;70424;55.154;14.722;2023-09-19T08:10:40;100328.47;;;21.75
80962;BMP280;70424;55.154;14.722;2023-09-19T08:13:07;100335.44;;;21.74
80962;BMP280;70424;55.154;14.722;2023-09-19T08:15:36;100339.66;;;21.79
80962;BMP280;70424;55.154;14.722;2023-09-19T08:18:09;100357.56;;;21.64
80962;BMP280;70424;55.154;14.722;2023-09-19T08:20:35;100348.50;;;21.59
80962;BMP280;70424;55.154;14.722;2023-09-19T08:23:03;100370.81;;;21.68
80962;BMP280;70424;55.154;14.722;2023-09-19T08:25:29;100364.19;;;21.99
80962;BMP280;70424;55.154;14.722;2023-09-19T08:27:55;100362.34;;;22.30
80962;BMP280;70424;55.154;14.722;2023-09-19T08:30:23;100366.06;;;22.67
80962;BMP280;70424;55.154;14.722;2023-09-19T08:32:56;100367.69;;;23.10
80962;BMP280;70424;55.154;14.722;2023-09-19T08:35:23;100355.69;;;22.82
80962;BMP280;70424;55.154;14.722;2023-09-19T08:37:48;100357.84;;;22.91
80962;BMP280;70424;55.154;14.722;2023-09-19T08:40:14;100354.34;;;22.87
80962;BMP280;70424;55.154;14.722;2023-09-19T08:42:56;100344.03;;;23.22
80962;BMP280;70424;55.154;14.722;2023-09-19T08:45:22;100369.19;;;23.48
80962;BMP280;70424;55.154;14.722;2023-09-19T08:48:31;100367.13;;;23.50
80962;BMP280;70424;55.154;14.722;2023-09-19T08:51:07;100369.97;;;23.93
80962;BMP280;70424;55.154;14.722;2023-09-19T08:53:42;100371.34;;;24.02
80962;BMP280;70424;55.154;14.722;2023-09-19T08:56:17;100374.84;;;24.23
80962;BMP280;70424;55.154;14.722;2023-09-19T08:59:00;100383.91;;;24.29
80962;BMP280;70424;55.154;14.722;2023-09-19T09:01:28;100390.91;;;23.96
80962;BMP280;70424;55.154;14.722;2023-09-19T09:03:55;100377.63;;;23.90
80962;BMP280;70424;55.154;14.722;2023-09-19T09:06:21;100379.00;;;23.83
80962;BMP280;70424;55.154;14.722;2023-09-19T09:08:47;100384.63;;;23.94
80962;BMP280;70424;55.154;14.722;2023-09-19T09:11:15;100391.59;;;24.05
80962;BMP280;70424;55.154;14.722;2023-09-19T09:13:43;100403.44;;;24.09
80962;BMP280;70424;55.154;14.722;2023-09-19T09:16:10;100391.59;;;24.01
80962;BMP280;70424;55.154;14.722;2023-09-19T09:18:35;100397.84;;;23.85
80962;BMP280;70424;55.154;14.722;2023-09-19T09:21:01;100413.22;;;24.04
80962;BMP280;70424;55.154;14.722;2023-09-19T09:23:26;100417.41;;;24.09
80962;BMP280;70424;55.154;14.722;2023-09-19T09:25:55;100406.25;;;24.19
80962;BMP280;70424;55.154;14.722;2023-09-19T09:28:33;100418.81;;;24.47
80962;BMP280;70424;55.154;14.722;2023-09-19T09:31:00;100429.22;;;24.75
80962;BMP280;70424;55.154;14.722;2023-09-19T09:33:28;100434.78;;;24.83
80962;BMP280;70424;55.154;14.722;2023-09-19T09:36:01;100436.25;;;24.61
80962;BMP280;70424;55.154;14.722;2023-09-19T09:38:30;100430.66;;;24.57
80962;BMP280;70424;55.154;14.722;2023-09-19T09:41:08;100426.44;;;24.68
80962;BMP280;70424;55.154;14.722;2023-09-19T09:43:36;100431.34;;;24.60
80962;BMP280;70424;55.154;14.722;2023-09-19T09:46:09;100434.16;;;24.17
80962;BMP280;70424;55.154;14.722;2023-09-19T09:48:48;100431.38;;;23.87
80962;BMP280;70424;55.154;14.722;2023-09-19T09:51:43;100437.66;;;24.34
80962;BMP280;70424;55.154;14.722;2023-09-19T09:54:15;100434.84;;;24.48
80962;BMP280;70424;55.154;14.722;2023-09-19T09:57:01;100439.03;;;24.72
80962;BMP280;70424;55.154;14.722;2023-09-19T09:59:46;100441.06;;;24.99
80962;BMP280;70424;55.154;14.722;2023-09-19T10:02:12;100453.66;;;24.92
80962;BMP280;70424;55.154;14.722;2023-09-19T10:04:39;100443.16;;;24.95
80962;BMP280;70424;55.154;14.722;2023-09-19T10:07:30;100440.31;;;25.01
80962;BMP280;70424;55.154;14.722;2023-09-19T10:10:01;100443.13;;;25.05
80962;BMP280;70424;55.154;14.722;2023-09-19T10:12:49;100450.94;;;24.15
80962;BMP280;70424;55.154;14.722;2023-09-19T10:15:18;100428.50;;;23.73
80962;BMP280;70424;55.154;14.722;2023-09-19T10:17:47;100424.28;;;23.47
80962;BMP280;70424;55.154;14.722;2023-09-19T10:20:14;100436.88;;;23.50
80962;BMP280;70424;55.154;14.722;2023-09-19T10:23:03;100420.16;;;23.61
80962;BMP280;70424;55.154;14.722;2023-09-19T10:25:29;100435.56;;;23.94
80962;BMP280;70424;55.154;14.722;2023-09-19T10:27:57;100439.06;;;24.03
80962;BMP280;70424;55.154;14.722;2023-09-19T10:30:24;100436.25;;;24.25
80962;BMP280;70424;55.154;14.722;2023-09-19T10:32:57;100431.38;;;24.11
80962;BMP280;70424;55.154;14.722;2023-09-19T10:35:23;100453.03;;;24.27
80962;BMP280;70424;55.154;14.722;2023-09-19T10:37:50;100455.13;;;24.12
80962;BMP280;70424;55.154;14.722;2023-09-19T10:40:16;100457.84;;;23.72
80962;BMP280;70424;55.154;14.722;2023-09-19T10:42:45;100476.63;;;23.55
80962;BMP280;70424;55.154;14.722;2023-09-19T10:45:12;100461.97;;;23.59
80962;BMP280;70424;55.154;14.722;2023-09-19T10:47:40;100493.41;;;23.65
80962;BMP280;70424;55.154;14.722;2023-09-19T10:50:06;100478.00;;;23.58
80962;BMP280;70424;55.154;14.722;2023-09-19T10:52:40;100476.66;;;23.65
80962;BMP280;70424;55.154;14.722;2023-09-19T10:55:07;100466.16;;;23.53
80962;BMP280;70424;55.154;14.722;2023-09-19T10:57:35;100482.25;;;23.65
80962;BMP280;70424;55.154;14.722;2023-09-19T11:05:39;100503.84;;;23.61
80962;BMP280;70424;55.154;14.722;2023-09-19T11:08:07;100499.00;;;23.71
80962;BMP280;70424;55.154;14.722;2023-09-19T11:10:45;100510.91;;;23.86
80962;BMP280;70424;55.154;14.722;2023-09-19T11:13:23;100511.56;;;23.74
80962;BMP280;70424;55.154;14.722;2023-09-19T11:26:48;100494.84;;;22.57
80962;BMP280;70424;55.154;14.722;2023-09-19T11:29:29;100504.09;;;22.06
80962;BMP280;70424;55.154;14.722;2023-09-19T11:31:56;100500.56;;;22.03
80962;BMP280;70424;55.154;14.722;2023-09-19T11:34:43;100510.69;;;22.38
80962;BMP280;70424;55.154;14.722;2023-09-19T11:39:38;100521.31;;;22.58
80962;BMP280;70424;55.154;14.722;2023-09-19T11:45:06;100534.09;;;22.13
80962;BMP280;70424;55.154;14.722;2023-09-19T11:47:32;100533.94;;;21.99
80962;BMP280;70424;55.154;14.722;2023-09-19T11:50:01;100534.63;;;21.99
80962;BMP280;70424;55.154;14.722;2023-09-19T11:52:28;100532.19;;;21.70
80962;BMP280;70424;55.154;14.722;2023-09-19T11:54:59;100547.91;;;21.49
80962;BMP280;70424;55.154;14.722;2023-09-19T11:57:27;100538.06;;;21.42
80962;BMP280;70424;55.154;14.722;2023-09-19T11:59:55;100539.41;;;21.39
80962;BMP280;70424;55.154;14.722;2023-09-19T12:02:39;100526.25;;;21.43
80962;BMP280;70424;55.154;14.722;2023-09-19T12:05:07;100527.94;;;21.64
80962;BMP280;70424;55.154;14.722;2023-09-19T12:07:42;100541.25;;;21.70
80962;BMP280;70424;55.154;14.722;2023-09-19T12:10:08;100539.13;;;21.67
80962;BMP280;70424;55.154;14.722;2023-09-19T12:12:36;100524.50;;;21.66
80962;BMP280;70424;55.154;14.722;2023-09-19T12:15:02;100523.16;;;21.71
80962;BMP280;70424;55.154;14.722;2023-09-19T12:17:39;100527.44;;;21.78
80962;BMP280;70424;55.154;14.722;2023-09-19T12:20:07;100530.94;;;21.79
80962;BMP280;70424;55.154;14.722;2023-09-19T12:22:43;100524.59;;;21.74
80962;BMP280;70424;55.154;14.722;2023-09-19T12:25:09;100535.63;;;21.68
80962;BMP280;70424;55.154;14.722;2023-09-19T12:27:46;100536.91;;;21.59
80962;BMP280;70424;55.154;14.722;2023-09-19T12:30:12;100541.38;;;21.32
80962;BMP280;70424;55.154;14.722;2023-09-19T12:32:39;100540.75;;;21.34
80962;BMP280;70424;55.154;14.722;2023-09-19T12:35:06;100535.59;;;21.16
80962;BMP280;70424;55.154;14.722;2023-09-19T12:37:43;100536.53;;;21.31
80962;BMP280;70424;55.154;14.722;2023-09-19T12:40:11;100532.53;;;21.44
80962;BMP280;70424;55.154;14.722;2023-09-19T12:42:45;100538.13;;;21.46
80962;BMP280;70424;55.154;14.722;2023-09-19T12:45:12;100544.06;;;21.24
80962;BMP280;70424;55.154;14.722;2023-09-19T12:47:39;100542.31;;;21.01
80962;BMP280;70424;55.154;14.722;2023-09-19T12:50:13;100542.63;;;20.79
80962;BMP280;70424;55.154;14.722;2023-09-19T12:52:56;100539.66;;;20.67
80962;BMP280;70424;55.154;14.722;2023-09-19T12:55:27;100543.28;;;20.75
80962;BMP280;70424;55.154;14.722;2023-09-19T12:58:01;100545.41;;;20.77
80962;BMP280;70424;55.154;14.722;2023-09-19T13:03:12;100533.44;;;20.68
80962;BMP280;70424;55.154;14.722;2023-09-19T13:06:07;100547.19;;;20.60
80962;BMP280;70424;55.154;14.722;2023-09-19T13:08:37;100532.53;;;20.56
80962;BMP280;70424;55.154;14.722;2023-09-19T13:11:10;100541.50;;;20.54
80962;BMP280;70424;55.154;14.722;2023-09-19T13:19:46;100534.97;;;20.37
80962;BMP280;70424;55.154;14.722;2023-09-19T13:22:43;100555.09;;;20.38
80962;BMP280;70424;55.154;14.722;2023-09-19T13:25:20;100543.84;;;20.30
80962;BMP280;70424;55.154;14.722;2023-09-19T13:27:53;100552.66;;;20.20
80962;BMP280;70424;55.154;14.722;2023-09-19T13:30:22;100559.06;;;20.29
80962;BMP280;70424;55.154;14.722;2023-09-19T13:32:48;100547.44;;;20.36
80962;BMP280;70424;55.154;14.722;2023-09-19T13:35:14;100546.09;;;20.39
80962;BMP280;70424;55.154;14.722;2023-09-19T13:37:41;100539.63;;;20.29
80962;BMP280;70424;55.154;14.722;2023-09-19T13:40:11;100555.44;;;20.20
80962;BMP280;70424;55.154;14.722;2023-09-19T13:42:37;100543.53;;;20.15
80962;BMP280;70424;55.154;14.722;2023-09-19T13:45:03;100550.09;;;20.30
80962;BMP280;70424;55.154;14.722;2023-09-19T13:47:32;100547.63;;;20.46
80962;BMP280;70424;55.154;14.722;2023-09-19T13:49:59;100546.28;;;20.49
80962;BMP280;70424;55.154;14.722;2023-09-19T13:52:26;100548.47;;;20.55
80962;BMP280;70424;55.154;14.722;2023-09-19T13:54:53;100544.41;;;20.60
80962;BMP280;70424;55.154;14.722;2023-09-19T13:57:19;100546.69;;;20.72
80962;BMP280;70424;55.154;14.722;2023-09-19T13:59:44;100545.69;;;20.95
80962;BMP280;70424;55.154;14.722;2023-09-19T14:02:09;100545.34;;;21.19
80962;BMP280;70424;55.154;14.722;2023-09-19T14:04:35;100553.34;;;21.41
80962;BMP280;70424;55.154;14.722;2023-09-19T14:07:01;100560.56;;;21.60
80962;BMP280;70424;55.154;14.722;2023-09-19T14:09:26;100550.13;;;21.58
80962;BMP280;70424;55.154;14.722;2023-09-19T14:11:52;100556.94;;;21.51
80962;BMP280;70424;55.154;14.722;2023-09-19T14:14:21;100560.84;;;21.30
80962;BMP280;70424;55.154;14.722;2023-09-19T14:16:49;100561.41;;;21.20
80962;BMP280;70424;55.154;14.722;2023-09-19T14:19:14;100564.53;;;21.01
80962;BMP280;70424;55.154;14.722;2023-09-19T14:21:41;100562.84;;;20.81
80962;BMP280;70424;55.154;14.722;2023-09-19T14:24:07;100589.63;;;20.67
80962;BMP280;70424;55.154;14.722;2023-09-19T14:26:37;100557.69;;;20.66
80962;BMP280;70424;55.154;14.722;2023-09-19T14:29:03;100557.53;;;20.56
80962;BMP280;70424;55.154;14.722;2023-09-19T14:31:28;100565.16;;;20.57